createdAt,value
2018-03-14T00:00:19.201Z,11.10
2018-03-14T00:02:48.464Z,11.97
2018-03-14T00:05:19.077Z,11.97
2018-03-14T00:07:47.900Z,9.93
2018-03-14T00:10:17.514Z,10.53
2018-03-14T00:12:46.882Z,11.90
2018-03-14T00:15:15.719Z,11.00
2018-03-14T00:17:44.587Z,12.50
2018-03-14T00:20:14.192Z,14.50
2018-03-14T00:22:43.803Z,15.80
2018-03-14T00:25:13.405Z,17.47
2018-03-14T00:27:43.046Z,17.60
2018-03-14T00:30:11.884Z,19.23
2018-03-14T00:32:41.451Z,19.90
2018-03-14T00:35:11.094Z,19.77
2018-03-14T00:37:39.947Z,20.67
2018-03-14T00:40:08.798Z,19.97
2018-03-14T00:42:38.414Z,23.33
2018-03-14T00:45:08.013Z,21.40
2018-03-14T00:47:37.627Z,21.13
2018-03-14T00:50:07.230Z,21.03
2018-03-14T00:52:36.829Z,20.60
2018-03-14T00:55:06.449Z,20.37
2018-03-14T00:57:36.041Z,20.93
2018-03-14T01:00:05.788Z,20.23
2018-03-14T01:02:34.637Z,20.60
2018-03-14T01:05:03.484Z,20.50
2018-03-14T01:07:32.306Z,19.40
2018-03-14T01:10:01.161Z,20.17
2018-03-14T01:12:30.014Z,17.27
2018-03-14T01:14:58.829Z,17.27
2018-03-14T01:17:27.665Z,16.40
2018-03-14T01:19:56.603Z,17.70
2018-03-14T01:22:25.540Z,15.20
2018-03-14T01:24:54.394Z,15.07
2018-03-14T01:27:23.287Z,15.03
2018-03-14T01:29:52.129Z,15.83
2018-03-14T01:32:21.747Z,16.10
2018-03-14T01:34:51.382Z,16.17
2018-03-14T01:37:20.344Z,17.00
2018-03-14T01:39:49.157Z,17.07
2018-03-14T01:52:02.998Z,17.07
2018-03-14T01:54:32.617Z,19.50
2018-03-14T01:57:02.238Z,18.00
2018-03-14T01:59:31.086Z,18.77
2018-03-14T02:01:59.925Z,20.67
2018-03-14T02:04:28.773Z,21.27
2018-03-14T02:06:57.674Z,21.17
2018-03-14T02:09:27.306Z,22.87
2018-03-14T02:11:56.159Z,24.03
2018-03-14T02:14:25.057Z,23.47
2018-03-14T02:16:54.651Z,25.10
2018-03-14T02:19:23.490Z,25.07
2018-03-14T02:21:52.373Z,24.17
2018-03-14T02:24:21.230Z,24.40
2018-03-14T02:26:50.793Z,24.00
2018-03-14T02:29:20.477Z,26.70
2018-03-14T02:31:49.324Z,25.17
2018-03-14T02:34:18.155Z,22.83
2018-03-14T02:36:58.951Z,23.33
2018-03-14T02:39:27.810Z,22.20
2018-03-14T02:41:56.624Z,22.80
2018-03-14T02:44:25.479Z,19.93
2018-03-14T02:46:54.298Z,20.07
2018-03-14T02:49:23.920Z,21.00
2018-03-14T02:51:52.753Z,20.90
2018-03-14T02:54:21.596Z,20.80
2018-03-14T02:56:50.414Z,21.50
2018-03-14T02:59:19.494Z,22.00
2018-03-14T03:01:48.341Z,19.40
2018-03-14T03:04:17.958Z,19.27
2018-03-14T03:06:50.424Z,22.00
2018-03-14T03:09:20.068Z,20.10
2018-03-14T03:11:48.957Z,20.67
2018-03-14T03:14:17.785Z,20.03
2018-03-14T03:16:46.625Z,19.80
2018-03-14T03:19:16.233Z,20.70
2018-03-14T03:21:45.838Z,21.23
2018-03-14T03:24:14.698Z,21.07
2018-03-14T03:26:44.310Z,19.47
2018-03-14T03:29:13.919Z,18.77
2018-03-14T03:31:43.530Z,20.50
2018-03-14T03:34:13.137Z,20.57
2018-03-14T03:36:44.165Z,19.67
2018-03-14T03:39:12.985Z,19.80
2018-03-14T03:41:41.834Z,21.30
2018-03-14T03:44:10.666Z,20.53
2018-03-14T03:46:39.534Z,20.60
2018-03-14T03:49:08.378Z,21.37
2018-03-14T03:51:37.218Z,20.17
2018-03-14T03:54:06.060Z,21.13
2018-03-14T03:56:34.994Z,20.50
2018-03-14T03:59:03.837Z,20.03
2018-03-14T04:01:32.674Z,21.03
2018-03-14T04:04:01.528Z,21.13
2018-03-14T04:06:30.447Z,21.47
2018-03-14T04:08:59.270Z,21.13
2018-03-14T04:11:28.130Z,20.77
2018-03-14T04:13:56.988Z,21.67
2018-03-14T04:16:26.602Z,21.57
2018-03-14T04:18:56.230Z,21.63
2018-03-14T04:21:25.050Z,23.13
2018-03-14T04:23:53.953Z,22.27
2018-03-14T04:26:22.784Z,21.60
2018-03-14T04:28:52.397Z,20.40
2018-03-14T04:31:21.990Z,22.07
2018-03-14T04:33:51.599Z,19.80
2018-03-14T04:36:21.210Z,20.93
2018-03-14T04:38:50.814Z,21.63
2018-03-14T04:41:20.410Z,20.87
2018-03-14T04:43:50.057Z,19.80
2018-03-14T04:46:18.897Z,20.23
2018-03-14T04:48:47.875Z,19.20
2018-03-14T04:51:16.741Z,19.47
2018-03-14T04:53:45.586Z,19.83
2018-03-14T04:56:14.423Z,17.80
2018-03-14T04:58:43.290Z,18.97
2018-03-14T05:01:12.897Z,19.43
2018-03-14T05:03:42.486Z,18.60
2018-03-14T05:06:11.323Z,18.10
2018-03-14T05:08:40.173Z,18.90
2018-03-14T05:11:09.790Z,18.33
2018-03-14T05:13:39.432Z,18.77
2018-03-14T05:16:09.858Z,17.40
2018-03-14T05:18:39.809Z,18.60
2018-03-14T05:21:08.747Z,19.20
2018-03-14T05:23:39.589Z,19.27
2018-03-14T05:26:08.430Z,19.87
2018-03-14T05:28:40.700Z,20.33
2018-03-14T05:31:10.779Z,20.70
2018-03-14T05:33:39.658Z,21.33
2018-03-14T05:36:08.503Z,20.27
2018-03-14T05:38:37.348Z,21.17
2018-03-14T05:41:06.189Z,23.03
2018-03-14T05:43:35.797Z,21.30
2018-03-14T05:46:05.416Z,21.47
2018-03-14T05:48:34.786Z,22.40
2018-03-14T05:51:04.386Z,21.60
2018-03-14T05:53:33.232Z,23.80
2018-03-14T05:56:02.061Z,22.83
2018-03-14T05:58:31.249Z,23.30
2018-03-14T06:01:00.642Z,24.27
2018-03-14T06:03:29.934Z,22.73
2018-03-14T06:05:58.751Z,22.47
2018-03-14T06:08:27.608Z,24.20
2018-03-14T06:10:57.202Z,25.43
2018-03-14T06:13:26.061Z,24.40
2018-03-14T06:15:54.930Z,24.00
2018-03-14T06:18:23.817Z,24.50
2018-03-14T06:20:52.715Z,26.13
2018-03-14T06:23:22.199Z,24.47
2018-03-14T06:25:51.803Z,23.30
2018-03-14T06:28:21.425Z,25.17
2018-03-14T06:30:50.577Z,26.83
2018-03-14T06:33:19.414Z,29.33
2018-03-14T06:35:48.272Z,34.27
2018-03-14T06:38:18.502Z,28.43
2018-03-14T06:40:48.107Z,25.53
2018-03-14T06:43:17.709Z,25.87
2018-03-14T06:45:47.342Z,25.43
2018-03-14T06:48:16.204Z,24.60
2018-03-14T06:50:45.038Z,25.43
2018-03-14T06:53:13.895Z,24.90
2018-03-14T06:55:43.508Z,23.63
2018-03-14T07:01:40.222Z,24.20
2018-03-14T07:04:21.009Z,26.07
2018-03-14T07:06:50.466Z,24.00
2018-03-14T07:09:19.330Z,23.50
2018-03-14T07:11:48.973Z,21.63
2018-03-14T07:14:17.814Z,22.37
2018-03-14T07:16:46.662Z,22.33
2018-03-14T07:19:15.529Z,19.90
2018-03-14T07:21:45.146Z,21.10
2018-03-14T07:24:14.045Z,21.50
2018-03-14T07:26:42.883Z,20.33
2018-03-14T07:29:11.712Z,20.00
2018-03-14T07:31:40.578Z,20.50
2018-03-14T07:34:09.413Z,19.67
2018-03-14T07:36:38.250Z,19.10
2018-03-14T07:39:07.833Z,20.80
2018-03-14T07:41:36.695Z,18.77
2018-03-14T07:44:05.533Z,18.70
2018-03-14T07:46:35.141Z,18.87
2018-03-14T07:49:03.984Z,16.10
2018-03-14T07:51:33.618Z,16.37
2018-03-14T07:54:02.470Z,17.50
2018-03-14T07:56:32.086Z,17.90
2018-03-14T07:59:01.730Z,16.60
2018-03-14T08:01:30.581Z,14.67
2018-03-14T08:04:00.459Z,16.43
2018-03-14T08:06:29.295Z,15.90
2018-03-14T08:08:58.844Z,15.50
2018-03-14T08:11:27.811Z,14.10
2018-03-14T08:13:57.020Z,13.80
2018-03-14T08:16:26.595Z,13.33
2018-03-14T08:18:56.390Z,13.63
2018-03-14T08:21:25.213Z,13.83
2018-03-14T08:23:54.065Z,13.47
2018-03-14T08:26:23.705Z,15.90
2018-03-14T08:28:52.570Z,13.37
2018-03-14T08:31:22.819Z,13.13
2018-03-14T08:33:51.693Z,13.07
2018-03-14T08:36:20.523Z,13.27
2018-03-14T08:38:49.379Z,13.20
2018-03-14T08:41:18.194Z,12.50
2018-03-14T08:43:47.087Z,12.43
2018-03-14T08:46:15.932Z,12.50
2018-03-14T08:48:45.562Z,12.73
2018-03-14T08:51:15.194Z,13.50
2018-03-14T08:53:44.054Z,13.60
2018-03-14T08:56:13.500Z,12.77
2018-03-14T08:58:42.354Z,14.00
2018-03-14T09:01:11.211Z,13.30
2018-03-14T09:03:41.334Z,13.40
2018-03-14T09:06:10.925Z,14.67
2018-03-14T09:08:40.306Z,14.87
2018-03-14T09:11:10.712Z,15.77
2018-03-14T09:13:40.335Z,13.90
2018-03-14T09:16:09.188Z,15.07
2018-03-14T09:18:38.028Z,15.00
2018-03-14T09:21:07.777Z,14.73
2018-03-14T09:23:36.591Z,14.17
2018-03-14T09:26:05.465Z,15.07
2018-03-14T09:28:34.570Z,14.10
2018-03-14T09:31:03.389Z,13.80
2018-03-14T09:33:32.234Z,10.10
2018-03-14T09:36:01.698Z,8.77
2018-03-14T09:38:31.311Z,8.27
2018-03-14T09:41:00.922Z,6.97
2018-03-14T09:43:30.570Z,7.23
2018-03-14T09:46:00.176Z,6.37
2018-03-14T09:48:29.638Z,6.23
2018-03-14T09:50:58.798Z,6.47
2018-03-14T09:53:28.590Z,7.33
2018-03-14T09:55:58.485Z,7.43
2018-03-14T09:58:27.363Z,7.73
2018-03-14T10:00:57.003Z,8.07
2018-03-14T10:03:25.865Z,7.80
2018-03-14T10:05:55.459Z,4.83
2018-03-14T10:08:25.162Z,4.67
2018-03-14T10:10:53.991Z,5.10
2018-03-14T10:13:22.829Z,4.90
2018-03-14T10:15:52.496Z,5.30
2018-03-14T10:18:22.103Z,6.43
2018-03-14T10:20:50.909Z,6.60
2018-03-14T10:23:19.779Z,6.13
2018-03-14T10:25:48.693Z,5.90
2018-03-14T10:28:17.422Z,7.07
2018-03-14T10:30:47.034Z,5.90
2018-03-14T10:33:16.603Z,5.90
2018-03-14T10:35:45.470Z,6.43
2018-03-14T10:38:14.341Z,6.43
2018-03-14T10:40:44.128Z,6.87
2018-03-14T10:43:13.718Z,7.00
2018-03-14T10:45:42.559Z,6.83
2018-03-14T10:48:11.437Z,7.70
2018-03-14T10:50:41.363Z,7.80
2018-03-14T10:53:11.007Z,8.53
2018-03-14T10:55:40.646Z,7.80
2018-03-14T10:58:09.495Z,7.83
2018-03-14T11:00:44.116Z,8.10
2018-03-14T11:03:17.920Z,8.83
2018-03-14T11:05:46.787Z,9.10
2018-03-14T11:08:16.386Z,10.33
2018-03-14T11:10:45.997Z,7.73
2018-03-14T11:13:15.611Z,8.40
2018-03-14T11:15:45.216Z,8.97
2018-03-14T11:18:15.055Z,12.10
2018-03-14T11:20:43.889Z,11.13
2018-03-14T11:23:12.734Z,9.97
2018-03-14T11:25:41.585Z,9.10
2018-03-14T11:28:11.233Z,8.80
2018-03-14T11:30:40.083Z,9.30
2018-03-14T11:33:09.745Z,9.80
2018-03-14T11:35:39.082Z,11.87
2018-03-14T11:38:08.714Z,12.10
2018-03-14T11:40:37.543Z,11.90
2018-03-14T11:43:06.460Z,11.57
2018-03-14T11:45:35.278Z,12.70
2018-03-14T11:48:04.913Z,14.53
2018-03-14T11:50:33.765Z,13.97
2018-03-14T11:53:03.830Z,13.53
2018-03-14T11:55:33.454Z,13.67
2018-03-14T11:58:02.323Z,16.93
2018-03-14T12:00:31.207Z,16.17
2018-03-14T12:03:00.046Z,13.93
2018-03-14T12:05:28.900Z,11.00
2018-03-14T12:07:58.532Z,16.40
2018-03-14T12:10:28.148Z,21.10
2018-03-14T12:12:57.330Z,22.17
2018-03-14T12:15:26.216Z,19.30
2018-03-14T12:17:56.153Z,17.90
2018-03-14T12:20:24.994Z,17.70
2018-03-14T12:22:53.869Z,15.60
2018-03-14T12:25:22.690Z,13.60
2018-03-14T12:27:52.323Z,17.90
2018-03-14T12:30:21.194Z,17.10
2018-03-14T12:32:50.821Z,18.20
2018-03-14T12:35:19.690Z,16.90
2018-03-14T12:37:49.323Z,16.70
2018-03-14T12:40:18.191Z,14.87
2018-03-14T12:42:47.800Z,15.70
2018-03-14T12:45:16.668Z,16.07
2018-03-14T12:47:45.522Z,15.50
2018-03-14T12:50:14.399Z,15.00
2018-03-14T12:52:43.283Z,13.90
2018-03-14T12:55:12.166Z,14.07
2018-03-14T12:57:41.781Z,13.60
2018-03-14T13:00:10.655Z,14.63
2018-03-14T13:02:39.501Z,12.83
2018-03-14T13:05:08.378Z,14.10
2018-03-14T13:07:37.230Z,14.57
2018-03-14T13:10:06.852Z,14.20
2018-03-14T13:12:36.480Z,12.27
2018-03-14T13:15:05.326Z,13.90
2018-03-14T13:17:34.758Z,15.03
2018-03-14T13:20:04.353Z,13.63
2018-03-14T13:22:33.960Z,15.20
2018-03-14T13:25:03.578Z,14.93
2018-03-14T13:27:32.442Z,13.97
2018-03-14T13:30:02.043Z,15.20
2018-03-14T13:32:30.903Z,15.17
2018-03-14T13:34:59.758Z,15.20
2018-03-14T13:37:29.078Z,14.57
2018-03-14T13:39:58.049Z,14.23
2018-03-14T13:42:27.676Z,13.27
2018-03-14T13:44:56.537Z,14.63
2018-03-14T13:47:26.149Z,14.47
2018-03-14T13:49:55.746Z,14.33
2018-03-14T13:52:25.405Z,15.47
2018-03-14T13:54:55.085Z,15.20
2018-03-14T13:57:24.201Z,16.10
2018-03-14T13:59:53.072Z,16.07
2018-03-14T14:02:22.709Z,15.60
2018-03-14T14:04:51.562Z,15.40
2018-03-14T14:07:20.406Z,14.53
2018-03-14T14:09:49.253Z,14.77
2018-03-14T14:12:18.086Z,14.60
2018-03-14T14:14:46.951Z,14.33
2018-03-14T14:17:15.822Z,14.97
2018-03-14T14:19:45.422Z,16.00
2018-03-14T14:22:14.263Z,15.03
2018-03-14T14:24:43.126Z,14.83
2018-03-14T14:27:12.053Z,13.77
2018-03-14T14:29:40.837Z,14.20
2018-03-14T14:32:10.443Z,14.23
2018-03-14T14:34:39.315Z,13.60
2018-03-14T14:37:08.166Z,15.90
2018-03-14T14:39:37.977Z,14.77
2018-03-14T14:42:06.818Z,15.10
2018-03-14T14:44:37.213Z,14.90
2018-03-14T14:47:06.060Z,14.83
2018-03-14T14:49:35.695Z,15.00
2018-03-14T14:52:04.530Z,15.70
2018-03-14T14:54:34.147Z,16.60
2018-03-14T14:57:03.043Z,15.97
2018-03-14T14:59:31.842Z,15.27
2018-03-14T15:02:01.477Z,15.30
2018-03-14T15:04:30.334Z,15.97
2018-03-14T15:06:59.971Z,15.90
2018-03-14T15:09:28.831Z,15.90
2018-03-14T15:11:58.443Z,17.03
2018-03-14T15:14:27.558Z,15.67
2018-03-14T15:16:57.142Z,16.30
2018-03-14T15:19:26.774Z,16.00
2018-03-14T15:21:55.695Z,15.70
2018-03-14T15:24:24.531Z,16.43
2018-03-14T15:26:54.144Z,16.50
2018-03-14T15:29:23.750Z,16.67
2018-03-14T15:31:53.495Z,16.00
2018-03-14T15:34:23.029Z,17.00
2018-03-14T15:36:51.924Z,16.73
2018-03-14T15:39:20.766Z,17.00
2018-03-14T15:41:49.664Z,17.00
2018-03-14T15:44:20.790Z,17.10
2018-03-14T15:46:49.693Z,17.27
2018-03-14T15:49:18.547Z,17.33
2018-03-14T15:51:47.401Z,17.10
2018-03-14T15:54:16.291Z,17.23
2018-03-14T15:56:45.910Z,17.27
2018-03-14T15:59:15.547Z,16.17
2018-03-14T16:01:44.393Z,18.03
2018-03-14T16:04:14.025Z,17.27
2018-03-14T16:06:42.882Z,18.03
2018-03-14T16:09:12.900Z,19.13
2018-03-14T16:11:41.698Z,19.62
2018-03-14T16:14:11.344Z,20.00
2018-03-14T16:16:40.190Z,19.43
2018-03-14T16:19:09.827Z,19.47
2018-03-14T16:21:38.666Z,19.10
2018-03-14T16:24:08.298Z,17.20
2018-03-14T16:26:37.912Z,17.80
2018-03-14T16:29:06.803Z,18.63
2018-03-14T16:31:36.390Z,18.30
2018-03-14T16:34:06.058Z,17.23
2018-03-14T16:36:34.919Z,18.80
2018-03-14T16:39:04.017Z,18.80
2018-03-14T16:41:32.855Z,18.93
2018-03-14T16:44:01.697Z,18.50
2018-03-14T16:46:30.573Z,18.27
2018-03-14T16:49:00.199Z,19.13
2018-03-14T16:51:29.100Z,19.57
2018-03-14T16:53:58.692Z,19.67
2018-03-14T16:56:27.555Z,18.27
2018-03-14T16:58:56.420Z,20.43
2018-03-14T17:01:26.033Z,20.50
2018-03-14T17:03:54.882Z,21.17
2018-03-14T17:06:23.788Z,19.67
2018-03-14T17:08:52.667Z,19.60
2018-03-14T17:11:21.523Z,19.73
2018-03-14T17:13:50.361Z,19.17
2018-03-14T17:16:20.012Z,19.53
2018-03-14T17:18:48.871Z,19.33
2018-03-14T17:21:18.489Z,18.97
2018-03-14T17:23:48.101Z,19.90
2018-03-14T17:26:16.952Z,19.23
2018-03-14T17:28:45.798Z,19.50
2018-03-14T17:31:14.660Z,19.20
2018-03-14T17:33:44.291Z,20.00
2018-03-14T17:36:13.139Z,20.73
2018-03-14T17:38:42.427Z,19.40
2018-03-14T17:41:11.304Z,18.53
2018-03-14T17:43:40.135Z,19.50
2018-03-14T17:46:09.433Z,19.97
2018-03-14T17:48:39.064Z,21.50
2018-03-14T17:51:07.971Z,18.73
2018-03-14T17:53:36.819Z,18.47
2018-03-14T17:56:05.651Z,20.37
2018-03-14T17:58:35.300Z,19.67
2018-03-14T18:01:04.146Z,19.07
2018-03-14T18:03:33.000Z,19.10
2018-03-14T18:06:01.831Z,19.20
2018-03-14T18:08:30.669Z,19.53
2018-03-14T18:10:59.509Z,18.13
2018-03-14T18:13:29.131Z,19.20
2018-03-14T18:15:58.743Z,20.90
2018-03-14T18:18:28.366Z,21.20
2018-03-14T18:20:57.262Z,22.20
2018-03-14T18:23:26.118Z,19.73
2018-03-14T18:25:55.728Z,20.40
2018-03-14T18:28:25.381Z,19.43
2018-03-14T18:30:54.229Z,21.73
2018-03-14T18:33:23.859Z,21.60
2018-03-14T18:35:53.465Z,23.20
2018-03-14T18:38:22.333Z,21.30
2018-03-14T18:40:51.971Z,21.73
2018-03-14T18:43:20.862Z,22.37
2018-03-14T18:45:49.708Z,23.07
2018-03-14T18:48:18.561Z,22.63
2018-03-14T18:50:47.413Z,23.60
2018-03-14T18:53:16.361Z,21.27
2018-03-14T18:55:45.250Z,22.37
2018-03-14T18:58:14.094Z,23.10
2018-03-14T19:00:44.155Z,21.47
2018-03-14T19:03:12.988Z,21.67
2018-03-14T19:05:41.837Z,20.53
2018-03-14T19:08:10.682Z,20.30
2018-03-14T19:10:40.308Z,20.50
2018-03-14T19:13:09.911Z,19.83
2018-03-14T19:15:39.533Z,17.87
2018-03-14T19:18:09.145Z,19.23
2018-03-14T19:20:38.314Z,18.50
2018-03-14T19:23:07.956Z,19.53
2018-03-14T19:25:37.571Z,18.97
2018-03-14T19:28:06.551Z,18.47
2018-03-14T19:30:36.182Z,18.00
2018-03-14T19:33:05.057Z,18.63
2018-03-14T19:35:33.897Z,17.93
2018-03-14T19:38:03.519Z,16.00
2018-03-14T19:40:33.171Z,16.77
2018-03-14T19:43:02.036Z,16.23
2018-03-14T19:45:31.663Z,16.43
2018-03-14T19:48:00.507Z,15.50
2018-03-14T19:50:30.045Z,16.70
2018-03-14T19:52:59.451Z,16.50
2018-03-14T19:55:28.861Z,16.50
2018-03-14T19:57:59.159Z,16.13
2018-03-14T20:00:28.019Z,14.53
2018-03-14T20:02:56.863Z,14.13
2018-03-14T20:05:25.721Z,15.17
2018-03-14T20:07:54.603Z,15.67
2018-03-14T20:10:23.686Z,15.40
2018-03-14T20:12:53.296Z,14.30
2018-03-14T20:15:22.946Z,14.20
2018-03-14T20:17:51.791Z,14.93
2018-03-14T20:20:21.427Z,14.63
2018-03-14T20:22:50.267Z,15.67
2018-03-14T20:25:19.106Z,16.47
2018-03-14T20:27:48.933Z,17.80
2018-03-14T20:30:17.790Z,18.10
2018-03-14T20:32:47.402Z,17.20
2018-03-14T20:35:17.031Z,20.17
2018-03-14T20:37:45.897Z,17.47
2018-03-14T20:40:14.760Z,16.70
2018-03-14T20:42:43.598Z,18.27
2018-03-14T20:45:12.483Z,17.70
2018-03-14T20:47:41.668Z,19.07
2018-03-14T20:50:10.518Z,16.90
2018-03-14T20:52:39.379Z,17.50
2018-03-14T20:55:08.256Z,18.20
2018-03-14T20:57:37.088Z,18.50
2018-03-14T21:00:06.105Z,19.07
2018-03-14T21:02:37.217Z,17.17
2018-03-14T21:05:06.052Z,19.07
2018-03-14T21:07:34.931Z,18.07
2018-03-14T21:10:03.795Z,18.17
2018-03-14T21:12:32.650Z,18.17
2018-03-14T21:15:02.275Z,18.40
2018-03-14T21:17:31.155Z,18.07
2018-03-14T21:19:59.995Z,18.20
2018-03-14T21:22:29.689Z,18.93
2018-03-14T21:24:58.541Z,20.87
2018-03-14T21:27:28.166Z,20.30
2018-03-14T21:29:57.018Z,20.23
2018-03-14T21:32:26.634Z,20.23
2018-03-14T21:34:55.458Z,19.10
2018-03-14T21:37:24.372Z,20.67
2018-03-14T21:39:53.202Z,19.67
2018-03-14T21:42:22.036Z,20.93
2018-03-14T21:44:50.886Z,18.90
2018-03-14T21:47:19.751Z,20.77
2018-03-14T21:49:48.608Z,21.17
2018-03-14T21:52:17.451Z,21.47
2018-03-14T21:54:47.054Z,20.10
2018-03-14T21:57:19.465Z,20.17
2018-03-14T21:59:48.387Z,20.50
2018-03-14T22:02:17.247Z,20.80
2018-03-14T22:04:46.873Z,20.30
2018-03-14T22:07:16.211Z,20.83
2018-03-14T22:09:45.072Z,20.60
2018-03-14T22:12:13.914Z,21.07
2018-03-14T22:14:42.763Z,20.20
2018-03-14T22:17:11.606Z,20.93
2018-03-14T22:19:40.632Z,21.10
2018-03-14T22:22:09.481Z,20.53
2018-03-14T22:24:38.325Z,20.23
2018-03-14T22:27:07.197Z,20.60
2018-03-14T22:29:36.062Z,20.73
2018-03-14T22:32:05.677Z,22.30
2018-03-14T22:34:35.312Z,21.90
2018-03-14T22:37:04.225Z,20.77
2018-03-14T22:39:34.210Z,23.10
2018-03-14T22:42:03.066Z,22.80
2018-03-14T22:44:32.714Z,21.67
2018-03-14T22:47:01.615Z,22.70
2018-03-14T22:49:30.441Z,22.17
2018-03-14T22:51:59.614Z,23.50
2018-03-14T22:54:28.455Z,23.03
2018-03-14T22:56:58.091Z,21.70
2018-03-14T22:59:26.926Z,21.80
2018-03-14T23:01:56.787Z,22.17
2018-03-14T23:04:25.674Z,21.40
2018-03-14T23:06:54.534Z,21.33
2018-03-14T23:09:24.142Z,22.53
2018-03-14T23:11:53.750Z,20.53
2018-03-14T23:14:23.359Z,22.60
2018-03-14T23:16:52.994Z,21.50
2018-03-14T23:19:21.846Z,21.10
2018-03-14T23:21:50.682Z,20.73
2018-03-14T23:24:19.534Z,22.33
2018-03-14T23:26:49.171Z,22.53
2018-03-14T23:29:18.015Z,22.33
2018-03-14T23:31:46.875Z,20.40
2018-03-14T23:34:16.074Z,23.53
2018-03-14T23:36:44.928Z,21.77
2018-03-14T23:39:13.773Z,22.83
2018-03-14T23:41:42.610Z,22.57
2018-03-14T23:44:11.479Z,22.07
2018-03-14T23:46:40.318Z,23.40
2018-03-14T23:49:09.142Z,20.10
2018-03-14T23:51:38.786Z,21.30
2018-03-14T23:54:08.495Z,22.60
2018-03-14T23:56:37.358Z,22.40
2018-03-14T23:59:07.001Z,22.23
